createdAt,value
2023-04-12T00:00:41.108Z,1000.74
2023-04-12T00:01:41.084Z,1000.69
2023-04-12T00:02:41.171Z,1000.70
2023-04-12T00:03:41.116Z,1000.68
2023-04-12T00:04:41.183Z,1000.66
2023-04-12T00:05:41.033Z,1000.62
2023-04-12T00:06:41.030Z,1000.63
2023-04-12T00:07:41.009Z,1000.60
2023-04-12T00:08:40.987Z,1000.56
2023-04-12T00:09:40.984Z,1000.56
2023-04-12T00:10:40.976Z,1000.54
2023-04-12T00:11:40.983Z,1000.52
2023-04-12T00:12:40.962Z,1000.45
2023-04-12T00:13:40.962Z,1000.47
2023-04-12T00:14:40.943Z,1000.41
2023-04-12T00:15:40.982Z,1000.38
2023-04-12T00:16:40.904Z,1000.34
2023-04-12T00:17:40.963Z,1000.30
2023-04-12T00:18:40.887Z,1000.28
2023-04-12T00:19:40.907Z,1000.35
2023-04-12T00:20:40.868Z,1000.21
2023-04-12T00:21:40.858Z,1000.28
2023-04-12T00:22:40.856Z,1000.32
2023-04-12T00:23:40.845Z,1000.29
2023-04-12T00:24:40.824Z,1000.32
2023-04-12T00:25:40.868Z,1000.28
2023-04-12T00:26:40.790Z,1000.20
2023-04-12T00:27:40.824Z,1000.28
2023-04-12T00:28:40.770Z,1000.22
2023-04-12T00:29:40.781Z,1000.23
2023-04-12T00:30:40.779Z,1000.22
2023-04-12T00:31:40.903Z,1000.13
2023-04-12T00:32:40.785Z,999.98
2023-04-12T00:33:40.710Z,1000.10
2023-04-12T00:34:40.715Z,1000.10
2023-04-12T00:35:40.721Z,1000.10
2023-04-12T00:36:40.695Z,1000.09
2023-04-12T00:37:40.703Z,1000.04
2023-04-12T00:38:40.664Z,999.98
2023-04-12T00:39:40.642Z,999.93
2023-04-12T00:40:40.652Z,999.91
2023-04-12T00:41:40.621Z,999.84
2023-04-12T00:42:40.618Z,999.83
2023-04-12T00:43:40.615Z,999.74
2023-04-12T00:44:40.584Z,999.61
2023-04-12T00:45:40.618Z,999.66
2023-04-12T00:46:40.667Z,999.65
2023-04-12T00:47:40.625Z,999.63
2023-04-12T00:48:40.555Z,999.65
2023-04-12T00:49:40.544Z,999.55
2023-04-12T00:50:40.548Z,999.58
2023-04-12T00:51:40.527Z,999.58
2023-04-12T00:52:40.506Z,999.54
2023-04-12T00:53:40.500Z,999.50
2023-04-12T00:54:40.515Z,999.41
2023-04-12T00:55:40.483Z,999.39
2023-04-12T00:56:40.491Z,999.40
2023-04-12T00:57:40.464Z,999.45
2023-04-12T00:58:40.462Z,999.38
2023-04-12T00:59:40.453Z,999.36
2023-04-12T01:00:40.450Z,999.33
2023-04-12T01:01:40.460Z,999.31
2023-04-12T01:02:40.490Z,999.28
2023-04-12T01:03:40.539Z,999.32
2023-04-12T01:04:40.398Z,999.24
2023-04-12T01:05:40.383Z,999.28
2023-04-12T01:06:40.357Z,999.20
2023-04-12T01:07:40.365Z,999.21
2023-04-12T01:08:40.339Z,999.16
2023-04-12T01:09:40.322Z,999.12
2023-04-12T01:10:40.311Z,999.09
2023-04-12T01:11:40.295Z,999.14
2023-04-12T01:12:40.298Z,999.11
2023-04-12T01:13:40.285Z,999.06
2023-04-12T01:14:40.262Z,999.02
2023-04-12T01:15:40.245Z,999.08
2023-04-12T01:16:40.334Z,999.05
2023-04-12T01:17:40.272Z,999.01
2023-04-12T01:18:40.210Z,999.01
2023-04-12T01:19:40.223Z,999.05
2023-04-12T01:20:40.201Z,998.97
2023-04-12T01:21:40.176Z,998.94
2023-04-12T01:22:40.181Z,998.95
2023-04-12T01:23:40.168Z,998.93
2023-04-12T01:24:40.156Z,998.88
2023-04-12T01:25:40.154Z,998.90
2023-04-12T01:26:40.129Z,998.86
2023-04-12T01:27:40.120Z,998.86
2023-04-12T01:28:40.108Z,998.84
2023-04-12T01:29:40.082Z,998.69
2023-04-12T01:30:40.089Z,998.71
2023-04-12T01:31:40.139Z,998.62
2023-04-12T01:32:40.102Z,998.67
2023-04-12T01:33:40.064Z,998.65
2023-04-12T01:34:40.045Z,998.63
2023-04-12T01:35:40.087Z,998.56
2023-04-12T01:36:40.026Z,998.62
2023-04-12T01:37:40.015Z,998.59
2023-04-12T01:38:39.992Z,998.52
2023-04-12T01:39:39.983Z,998.54
2023-04-12T01:40:40.007Z,998.46
2023-04-12T01:41:39.973Z,998.47
2023-04-12T01:42:39.974Z,998.49
2023-04-12T01:43:39.947Z,998.46
2023-04-12T01:44:39.942Z,998.40
2023-04-12T01:45:39.956Z,998.42
2023-04-12T01:46:39.904Z,998.43
2023-04-12T01:47:39.953Z,998.35
2023-04-12T01:48:39.902Z,998.36
2023-04-12T01:49:39.895Z,998.38
2023-04-12T01:50:39.866Z,998.36
2023-04-12T01:51:39.889Z,998.35
2023-04-12T01:52:39.846Z,998.24
2023-04-12T01:53:39.842Z,998.27
2023-04-12T01:54:39.853Z,998.30
2023-04-12T01:55:39.820Z,998.28
2023-04-12T01:56:40.518Z,998.26
2023-04-12T01:57:39.775Z,998.18
2023-04-12T01:58:39.769Z,998.21
2023-04-12T01:59:39.796Z,998.08
2023-04-12T02:00:39.790Z,998.06
2023-04-12T02:01:39.897Z,997.96
2023-04-12T02:02:39.910Z,997.98
2023-04-12T02:03:39.837Z,997.93
2023-04-12T02:04:39.723Z,997.91
2023-04-12T02:05:39.694Z,997.89
2023-04-12T02:06:39.710Z,997.90
2023-04-12T02:07:39.716Z,997.84
2023-04-12T02:08:39.665Z,997.79
2023-04-12T02:09:39.684Z,997.77
2023-04-12T02:10:39.636Z,997.70
2023-04-12T02:11:39.643Z,997.73
2023-04-12T02:12:39.618Z,997.74
2023-04-12T02:13:39.628Z,997.70
2023-04-12T02:14:39.621Z,997.63
2023-04-12T02:15:39.574Z,997.71
2023-04-12T02:16:39.583Z,997.65
2023-04-12T02:17:39.611Z,997.62
2023-04-12T02:18:39.559Z,997.68
2023-04-12T02:19:39.565Z,997.59
2023-04-12T02:20:39.550Z,997.64
2023-04-12T02:21:39.534Z,997.61
2023-04-12T02:22:39.513Z,997.59
2023-04-12T02:23:39.508Z,997.63
2023-04-12T02:24:39.509Z,997.60
2023-04-12T02:25:39.495Z,997.54
2023-04-12T02:26:39.495Z,997.54
2023-04-12T02:27:39.473Z,997.51
2023-04-12T02:28:39.446Z,997.54
2023-04-12T02:29:39.441Z,997.47
2023-04-12T02:30:39.469Z,997.49
2023-04-12T02:31:39.438Z,997.52
2023-04-12T02:32:39.458Z,997.46
2023-04-12T02:33:39.398Z,997.44
2023-04-12T02:34:39.374Z,997.40
2023-04-12T02:35:39.403Z,997.40
2023-04-12T02:36:39.361Z,997.40
2023-04-12T02:37:39.360Z,997.38
2023-04-12T02:38:39.335Z,997.36
2023-04-12T02:39:39.343Z,997.28
2023-04-12T02:40:39.318Z,997.30
2023-04-12T02:41:39.330Z,997.28
2023-04-12T02:42:40.384Z,997.29
2023-04-12T02:43:39.280Z,997.25
2023-04-12T02:44:39.296Z,997.23
2023-04-12T02:45:39.245Z,997.16
2023-04-12T02:46:39.241Z,997.16
2023-04-12T02:47:39.250Z,997.06
2023-04-12T02:48:39.227Z,997.04
2023-04-12T02:49:39.206Z,997.02
2023-04-12T02:50:39.204Z,997.01
2023-04-12T02:51:39.213Z,997.01
2023-04-12T02:52:39.197Z,996.98
2023-04-12T02:53:39.170Z,996.96
2023-04-12T02:54:39.170Z,996.96
2023-04-12T02:55:39.173Z,996.92
2023-04-12T02:56:39.158Z,996.91
2023-04-12T02:57:39.132Z,996.86
2023-04-12T02:58:39.149Z,996.78
2023-04-12T02:59:39.117Z,996.70
2023-04-12T03:00:39.087Z,996.70
2023-04-12T03:01:39.374Z,996.57
2023-04-12T03:02:39.170Z,996.68
2023-04-12T03:03:39.146Z,996.65
2023-04-12T03:04:39.041Z,996.70
2023-04-12T03:05:39.027Z,996.63
2023-04-12T03:06:39.023Z,996.51
2023-04-12T03:07:39.055Z,996.61
2023-04-12T03:08:39.022Z,996.55
2023-04-12T03:09:38.983Z,996.57
2023-04-12T03:10:38.996Z,996.54
2023-04-12T03:11:38.991Z,996.54
2023-04-12T03:12:38.940Z,996.47
2023-04-12T03:13:38.961Z,996.48
2023-04-12T03:14:38.945Z,996.44
2023-04-12T03:15:39.001Z,996.26
2023-04-12T03:16:38.904Z,996.31
2023-04-12T03:17:38.939Z,996.27
2023-04-12T03:18:38.903Z,996.29
2023-04-12T03:19:38.868Z,996.19
2023-04-12T03:20:38.874Z,996.15
2023-04-12T03:21:38.864Z,996.19
2023-04-12T03:22:38.919Z,996.20
2023-04-12T03:23:38.834Z,996.17
2023-04-12T03:24:38.838Z,996.12
2023-04-12T03:25:38.810Z,996.05
2023-04-12T03:26:38.809Z,995.92
2023-04-12T03:27:38.829Z,995.99
2023-04-12T03:28:38.788Z,995.91
2023-04-12T03:29:38.796Z,995.91
2023-04-12T03:30:38.744Z,995.88
2023-04-12T03:31:38.894Z,995.83
2023-04-12T03:32:38.777Z,995.83
2023-04-12T03:33:38.734Z,995.79
2023-04-12T03:34:38.698Z,995.73
2023-04-12T03:35:38.728Z,995.77
2023-04-12T03:36:38.686Z,995.76
2023-04-12T03:37:38.697Z,995.78
2023-04-12T03:38:38.725Z,995.73
2023-04-12T03:39:38.649Z,995.68
2023-04-12T03:40:38.626Z,995.63
2023-04-12T03:41:38.633Z,995.63
2023-04-12T03:42:38.614Z,995.60
2023-04-12T03:43:38.621Z,995.60
2023-04-12T03:44:38.635Z,995.60
2023-04-12T03:45:38.595Z,995.57
2023-04-12T03:46:38.651Z,995.58
2023-04-12T03:47:38.602Z,995.62
2023-04-12T03:48:38.583Z,995.55
2023-04-12T03:49:38.548Z,995.61
2023-04-12T03:50:38.577Z,995.55
2023-04-12T03:51:38.536Z,995.41
2023-04-12T03:52:38.543Z,995.27
2023-04-12T03:53:38.515Z,995.41
2023-04-12T03:54:38.480Z,995.41
2023-04-12T03:55:38.479Z,995.39
2023-04-12T03:56:38.492Z,995.36
2023-04-12T03:57:38.502Z,995.33
2023-04-12T03:58:38.443Z,995.28
2023-04-12T03:59:38.449Z,995.31
2023-04-12T04:00:38.413Z,995.30
2023-04-12T04:01:38.468Z,995.23
2023-04-12T04:02:38.611Z,995.25
2023-04-12T04:03:38.634Z,995.11
2023-04-12T04:04:38.462Z,995.11
2023-04-12T04:05:38.402Z,995.07
2023-04-12T04:06:38.353Z,995.07
2023-04-12T04:07:38.373Z,995.01
2023-04-12T04:08:38.325Z,994.98
2023-04-12T04:09:38.313Z,994.92
2023-04-12T04:10:38.309Z,994.90
2023-04-12T04:11:38.293Z,994.80
2023-04-12T04:12:38.304Z,994.81
2023-04-12T04:13:38.266Z,994.78
2023-04-12T04:14:38.304Z,994.66
2023-04-12T04:15:38.290Z,994.69
2023-04-12T04:16:38.301Z,994.64
2023-04-12T04:17:38.291Z,994.61
2023-04-12T04:18:38.225Z,994.57
2023-04-12T04:19:38.261Z,994.53
2023-04-12T04:20:38.244Z,994.57
2023-04-12T04:21:38.203Z,994.55
2023-04-12T04:22:38.189Z,994.54
2023-04-12T04:23:38.168Z,994.56
2023-04-12T04:24:38.172Z,994.48
2023-04-12T04:25:38.272Z,994.45
2023-04-12T04:26:38.159Z,994.52
2023-04-12T04:27:38.116Z,994.52
2023-04-12T04:28:38.124Z,994.45
2023-04-12T04:29:38.109Z,994.44
2023-04-12T04:30:38.113Z,994.45
2023-04-12T04:31:38.139Z,994.46
2023-04-12T04:32:38.123Z,994.42
2023-04-12T04:33:38.063Z,994.35
2023-04-12T04:34:38.069Z,994.31
2023-04-12T04:35:38.078Z,994.12
2023-04-12T04:36:38.029Z,994.20
2023-04-12T04:37:38.016Z,994.19
2023-04-12T04:38:38.081Z,994.11
2023-04-12T04:39:38.010Z,994.16
2023-04-12T04:40:37.997Z,994.18
2023-04-12T04:41:37.986Z,994.22
2023-04-12T04:42:37.966Z,994.22
2023-04-12T04:43:37.952Z,994.12
2023-04-12T04:44:37.977Z,994.23
2023-04-12T04:45:37.948Z,994.11
2023-04-12T04:46:38.060Z,994.15
2023-04-12T04:47:38.002Z,994.13
2023-04-12T04:48:37.900Z,994.12
2023-04-12T04:49:37.879Z,994.12
2023-04-12T04:50:37.901Z,994.15
2023-04-12T04:51:37.891Z,994.11
2023-04-12T04:52:37.960Z,994.13
2023-04-12T04:53:37.882Z,994.15
2023-04-12T04:54:37.823Z,994.15
2023-04-12T04:55:37.826Z,994.05
2023-04-12T04:56:37.900Z,994.02
2023-04-12T04:57:37.816Z,994.02
2023-04-12T04:58:37.801Z,994.06
2023-04-12T04:59:37.782Z,994.04
2023-04-12T05:00:37.764Z,994.03
2023-04-12T05:01:37.917Z,993.99
2023-04-12T05:02:37.902Z,994.01
2023-04-12T05:03:37.966Z,993.88
2023-04-12T05:04:37.714Z,993.88
2023-04-12T05:05:37.731Z,993.89
2023-04-12T05:06:37.720Z,993.93
2023-04-12T05:07:37.735Z,993.95
2023-04-12T05:08:37.680Z,993.91
2023-04-12T05:09:37.695Z,993.92
2023-04-12T05:10:37.677Z,993.92
2023-04-12T05:11:37.628Z,993.90
2023-04-12T05:12:37.637Z,993.89
2023-04-12T05:13:37.646Z,993.90
2023-04-12T05:14:45.453Z,993.91
2023-04-12T05:15:38.607Z,993.95
2023-04-12T05:16:37.633Z,993.96
2023-04-12T05:17:37.624Z,993.99
2023-04-12T05:18:37.561Z,993.93
2023-04-12T05:19:37.582Z,993.98
2023-04-12T05:20:37.540Z,993.93
2023-04-12T05:21:37.531Z,993.87
2023-04-12T05:22:37.509Z,993.83
2023-04-12T05:23:37.566Z,993.95
2023-04-12T05:24:37.502Z,993.84
2023-04-12T05:25:37.495Z,993.84
2023-04-12T05:26:37.473Z,993.83
2023-04-12T05:27:37.469Z,993.83
2023-04-12T05:28:37.480Z,993.78
2023-04-12T05:29:37.450Z,993.79
2023-04-12T05:30:37.477Z,993.67
2023-04-12T05:31:37.412Z,993.73
2023-04-12T05:32:37.420Z,993.71
2023-04-12T05:33:37.402Z,993.64
2023-04-12T05:34:37.396Z,993.64
2023-04-12T05:35:37.423Z,993.68
2023-04-12T05:36:37.357Z,993.65
2023-04-12T05:37:37.388Z,993.62
2023-04-12T05:38:37.337Z,993.62
2023-04-12T05:39:37.338Z,993.58
2023-04-12T05:40:37.337Z,993.57
2023-04-12T05:41:37.293Z,993.57
2023-04-12T05:42:37.324Z,993.57
2023-04-12T05:43:37.321Z,993.43
2023-04-12T05:44:37.273Z,993.48
2023-04-12T05:45:37.259Z,993.45
2023-04-12T05:46:37.308Z,993.39
2023-04-12T05:47:37.295Z,993.38
2023-04-12T05:48:37.244Z,993.41
2023-04-12T05:49:37.239Z,993.40
2023-04-12T05:50:37.204Z,993.37
2023-04-12T05:51:41.314Z,993.33
2023-04-12T05:52:37.197Z,993.30
2023-04-12T05:53:37.195Z,993.36
2023-04-12T05:54:37.152Z,993.36
2023-04-12T05:55:38.107Z,993.30
2023-04-12T05:56:37.171Z,993.31
2023-04-12T05:57:37.179Z,993.31
2023-04-12T05:58:37.152Z,993.20
2023-04-12T05:59:37.127Z,993.25
2023-04-12T06:00:37.108Z,993.24
2023-04-12T06:01:37.079Z,993.17
2023-04-12T06:02:37.358Z,993.17
2023-04-12T06:03:37.204Z,993.17
2023-04-12T06:04:49.335Z,993.18
2023-04-12T06:05:38.141Z,993.18
2023-04-12T06:06:37.044Z,993.17
2023-04-12T06:07:37.057Z,993.16
2023-04-12T06:08:37.057Z,993.16
2023-04-12T06:09:37.003Z,993.22
2023-04-12T06:10:37.009Z,993.19
2023-04-12T06:11:37.049Z,993.14
2023-04-12T06:12:37.012Z,993.15
2023-04-12T06:13:36.954Z,993.16
2023-04-12T06:14:36.930Z,993.11
2023-04-12T06:15:36.976Z,993.12
2023-04-12T06:16:36.937Z,993.17
2023-04-12T06:17:36.968Z,993.14
2023-04-12T06:18:36.911Z,993.12
2023-04-12T06:19:36.876Z,993.10
2023-04-12T06:20:36.878Z,993.15
2023-04-12T06:21:36.896Z,993.05
2023-04-12T06:22:36.909Z,993.13
2023-04-12T06:23:36.961Z,993.08
2023-04-12T06:24:36.827Z,993.06
2023-04-12T06:25:36.877Z,993.07
2023-04-12T06:26:39.648Z,993.01
2023-04-12T06:27:36.813Z,992.96
2023-04-12T06:28:36.775Z,992.92
2023-04-12T06:29:36.825Z,992.97
2023-04-12T06:30:36.800Z,992.93
2023-04-12T06:31:36.841Z,992.94
2023-04-12T06:32:36.834Z,992.87
2023-04-12T06:33:36.733Z,992.84
2023-04-12T06:34:36.715Z,992.78
2023-04-12T06:35:36.762Z,992.89
2023-04-12T06:36:36.718Z,992.82
2023-04-12T06:37:36.693Z,992.82
2023-04-12T06:38:37.108Z,992.77
2023-04-12T06:39:36.839Z,992.77
2023-04-12T06:40:36.670Z,992.79
2023-04-12T06:41:36.667Z,992.77
2023-04-12T06:42:36.698Z,992.79
2023-04-12T06:43:36.605Z,992.76
2023-04-12T06:44:36.656Z,992.74
2023-04-12T06:45:36.614Z,992.70
2023-04-12T06:46:36.618Z,992.71
2023-04-12T06:47:36.612Z,992.66
2023-04-12T06:48:36.607Z,992.63
2023-04-12T06:49:36.618Z,992.63
2023-04-12T06:50:36.569Z,992.57
2023-04-12T06:51:36.556Z,992.54
2023-04-12T06:52:36.505Z,992.52
2023-04-12T06:53:36.550Z,992.53
2023-04-12T06:54:36.515Z,992.43
2023-04-12T06:55:36.683Z,992.45
2023-04-12T06:56:36.480Z,992.44
2023-04-12T06:57:36.474Z,992.42
2023-04-12T06:58:36.447Z,992.37
2023-04-12T06:59:36.453Z,992.33
2023-04-12T07:00:36.478Z,992.35
2023-04-12T07:01:36.414Z,992.38
2023-04-12T07:02:36.529Z,992.32
2023-04-12T07:03:36.522Z,992.32
2023-04-12T07:04:36.400Z,992.33
2023-04-12T07:05:36.366Z,992.34
2023-04-12T07:06:36.395Z,992.26
2023-04-12T07:07:36.573Z,992.29
2023-04-12T07:08:36.371Z,992.20
2023-04-12T07:09:36.349Z,992.20
2023-04-12T07:10:36.319Z,992.22
2023-04-12T07:11:36.380Z,992.15
2023-04-12T07:12:36.333Z,992.14
2023-04-12T07:13:36.496Z,992.12
2023-04-12T07:14:36.295Z,992.07
2023-04-12T07:15:36.260Z,992.07
2023-04-12T07:16:36.331Z,992.11
2023-04-12T07:17:36.281Z,992.01
2023-04-12T07:18:36.242Z,992.09
2023-04-12T07:19:36.276Z,992.07
2023-04-12T07:20:36.195Z,992.06
2023-04-12T07:21:36.207Z,992.09
2023-04-12T07:22:36.221Z,992.06
2023-04-12T07:23:36.192Z,992.05
2023-04-12T07:24:36.174Z,992.00
2023-04-12T07:25:36.166Z,991.96
2023-04-12T07:26:36.194Z,991.94
2023-04-12T07:27:36.176Z,991.94
2023-04-12T07:28:36.167Z,991.93
2023-04-12T07:29:36.126Z,991.87
2023-04-12T07:30:36.129Z,991.83
2023-04-12T07:31:36.083Z,991.83
2023-04-12T07:32:36.177Z,991.80
2023-04-12T07:33:36.338Z,991.81
2023-04-12T07:34:36.153Z,991.82
2023-04-12T07:35:36.072Z,991.74
2023-04-12T07:36:36.095Z,991.75
2023-04-12T07:37:36.045Z,991.75
2023-04-12T07:38:36.013Z,991.71
2023-04-12T07:39:36.027Z,991.64
2023-04-12T07:40:35.989Z,991.59
2023-04-12T07:41:35.993Z,991.62
2023-04-12T07:42:35.997Z,991.58
2023-04-12T07:43:36.020Z,991.62
2023-04-12T07:44:38.644Z,991.58
2023-04-12T07:45:36.006Z,991.54
2023-04-12T07:46:35.951Z,991.49
2023-04-12T07:47:36.023Z,991.42
2023-04-12T07:48:35.916Z,991.42
2023-04-12T07:49:35.887Z,991.42
2023-04-12T07:50:35.890Z,991.42
2023-04-12T07:51:35.922Z,991.40
2023-04-12T07:52:35.870Z,991.39
2023-04-12T07:53:35.853Z,991.34
2023-04-12T07:54:35.832Z,991.34
2023-04-12T07:55:35.812Z,991.36
2023-04-12T07:56:35.864Z,991.43
2023-04-12T07:57:35.810Z,991.34
2023-04-12T07:58:35.802Z,991.39
2023-04-12T07:59:35.832Z,991.36
2023-04-12T08:00:35.759Z,991.29
2023-04-12T08:01:35.794Z,991.41
2023-04-12T08:02:35.863Z,991.42
2023-04-12T08:03:35.782Z,991.35
2023-04-12T08:04:35.715Z,991.24
2023-04-12T08:05:35.790Z,991.30
2023-04-12T08:06:35.730Z,991.26
2023-04-12T08:07:35.736Z,991.30
2023-04-12T08:08:35.682Z,991.29
2023-04-12T08:09:35.706Z,991.29
2023-04-12T08:10:35.669Z,991.27
2023-04-12T08:11:35.657Z,991.24
2023-04-12T08:12:35.641Z,991.19
2023-04-12T08:13:35.611Z,991.19
2023-04-12T08:14:35.613Z,991.25
2023-04-12T08:15:35.744Z,991.16
2023-04-12T08:16:35.626Z,991.21
2023-04-12T08:17:35.597Z,991.22
2023-04-12T08:18:35.569Z,991.25
2023-04-12T08:19:35.547Z,991.26
2023-04-12T08:20:35.556Z,991.25
2023-04-12T08:21:35.568Z,991.20
2023-04-12T08:22:35.531Z,991.22
2023-04-12T08:23:35.523Z,991.23
2023-04-12T08:24:35.520Z,991.25
2023-04-12T08:25:35.496Z,991.21
2023-04-12T08:26:35.515Z,991.16
2023-04-12T08:27:35.486Z,991.16
2023-04-12T08:28:36.416Z,991.19
2023-04-12T08:29:35.485Z,991.19
2023-04-12T08:30:35.439Z,991.17
2023-04-12T08:31:35.587Z,991.19
2023-04-12T08:32:35.423Z,991.14
2023-04-12T08:33:35.439Z,991.18
2023-04-12T08:34:35.411Z,991.14
2023-04-12T08:35:35.431Z,991.12
2023-04-12T08:36:35.386Z,991.08
2023-04-12T08:37:35.347Z,991.00
2023-04-12T08:38:44.845Z,991.04
2023-04-12T08:39:36.332Z,991.07
2023-04-12T08:40:35.469Z,991.02
2023-04-12T08:41:36.516Z,990.99
2023-04-12T08:42:35.297Z,990.93
2023-04-12T08:43:35.319Z,990.94
2023-04-12T08:44:35.315Z,990.86
2023-04-12T08:45:35.700Z,990.94
2023-04-12T08:46:35.273Z,990.93
2023-04-12T08:47:35.289Z,990.91
2023-04-12T08:48:35.266Z,990.90
2023-04-12T08:49:35.258Z,990.96
2023-04-12T08:50:35.208Z,990.98
2023-04-12T08:51:35.199Z,990.99
2023-04-12T08:52:35.190Z,991.00
2023-04-12T08:53:35.213Z,990.95
2023-04-12T08:54:35.206Z,991.03
2023-04-12T08:55:35.155Z,990.98
2023-04-12T08:56:35.147Z,990.97
2023-04-12T08:57:35.161Z,991.01
2023-04-12T08:58:35.146Z,991.04
2023-04-12T08:59:35.130Z,991.03
2023-04-12T09:00:35.104Z,990.93
2023-04-12T09:01:35.105Z,990.99
2023-04-12T09:02:35.124Z,990.93
2023-04-12T09:03:35.382Z,990.87
2023-04-12T09:04:35.171Z,990.93
2023-04-12T09:05:35.048Z,990.87
2023-04-12T09:06:35.018Z,990.81
2023-04-12T09:07:35.040Z,990.81
2023-04-12T09:08:35.018Z,990.84
2023-04-12T09:09:35.013Z,990.84
2023-04-12T09:10:34.991Z,990.79
2023-04-12T09:11:35.031Z,990.80
2023-04-12T09:12:34.998Z,990.80
2023-04-12T09:13:34.968Z,990.73
2023-04-12T09:14:34.954Z,990.68
2023-04-12T09:15:34.977Z,990.74
2023-04-12T09:16:34.981Z,990.76
2023-04-12T09:17:35.010Z,990.72
2023-04-12T09:18:34.929Z,990.72
2023-04-12T09:19:34.941Z,990.69
2023-04-12T09:20:34.921Z,990.69
2023-04-12T09:21:34.963Z,990.67
2023-04-12T09:22:34.873Z,990.66
2023-04-12T09:23:34.891Z,990.62
2023-04-12T09:24:34.851Z,990.64
2023-04-12T09:25:34.810Z,990.63
2023-04-12T09:26:34.848Z,990.64
2023-04-12T09:27:34.798Z,990.61
2023-04-12T09:28:34.812Z,990.63
2023-04-12T09:29:34.771Z,990.65
2023-04-12T09:30:34.798Z,990.58
2023-04-12T09:31:34.825Z,990.60
2023-04-12T09:32:34.789Z,990.60
2023-04-12T09:33:34.738Z,990.57
2023-04-12T09:34:34.735Z,990.57
2023-04-12T09:35:34.901Z,990.50
2023-04-12T09:36:34.722Z,990.56
2023-04-12T09:37:34.686Z,990.55
2023-04-12T09:38:34.696Z,990.62
2023-04-12T09:39:34.652Z,990.53
2023-04-12T09:40:34.628Z,990.53
2023-04-12T09:41:34.651Z,990.55
2023-04-12T09:42:34.918Z,990.52
2023-04-12T09:43:34.609Z,990.57
2023-04-12T09:44:34.623Z,990.51
2023-04-12T09:45:34.579Z,990.55
2023-04-12T09:46:34.662Z,990.58
2023-04-12T09:47:34.608Z,990.58
2023-04-12T09:48:34.556Z,990.57
2023-04-12T09:49:34.543Z,990.53
2023-04-12T09:50:34.518Z,990.53
2023-04-12T09:51:34.545Z,990.48
2023-04-12T09:52:34.515Z,990.43
2023-04-12T09:53:34.491Z,990.49
2023-04-12T09:54:34.550Z,990.46
2023-04-12T09:55:34.464Z,990.48
2023-04-12T09:56:34.459Z,990.44
2023-04-12T09:57:34.485Z,990.46
2023-04-12T09:58:34.467Z,990.46
2023-04-12T09:59:34.429Z,990.48
2023-04-12T10:00:34.656Z,990.50
2023-04-12T10:01:34.492Z,990.48
2023-04-12T10:02:34.608Z,990.41
2023-04-12T10:03:34.455Z,990.35
2023-04-12T10:04:34.490Z,990.31
2023-04-12T10:05:34.461Z,990.36
2023-04-12T10:06:34.369Z,990.32
2023-04-12T10:07:34.516Z,990.41
2023-04-12T10:08:34.332Z,990.40
2023-04-12T10:09:34.355Z,990.35
2023-04-12T10:10:34.314Z,990.33
2023-04-12T10:11:34.455Z,990.30
2023-04-12T10:12:34.290Z,990.30
2023-04-12T10:13:34.262Z,990.19
2023-04-12T10:14:34.248Z,990.16
2023-04-12T10:15:34.271Z,990.17
2023-04-12T10:16:34.304Z,990.13
2023-04-12T10:17:34.278Z,990.16
2023-04-12T10:18:34.197Z,990.14
2023-04-12T10:19:34.191Z,990.19
2023-04-12T10:20:34.211Z,990.15
2023-04-12T10:21:34.194Z,990.16
2023-04-12T10:22:34.210Z,990.13
2023-04-12T10:23:34.196Z,990.15
2023-04-12T10:24:34.141Z,990.16
2023-04-12T10:25:34.122Z,990.21
2023-04-12T10:26:34.168Z,990.18
2023-04-12T10:27:34.119Z,990.11
2023-04-12T10:28:34.106Z,990.14
2023-04-12T10:29:34.108Z,990.13
2023-04-12T10:30:34.106Z,990.14
2023-04-12T10:31:34.141Z,990.14
2023-04-12T10:32:35.434Z,990.10
2023-04-12T10:33:34.031Z,990.12
2023-04-12T10:34:34.050Z,990.11
2023-04-12T10:35:34.096Z,990.15
2023-04-12T10:36:34.017Z,990.18
2023-04-12T10:37:34.012Z,990.11
2023-04-12T10:38:35.951Z,990.11
2023-04-12T10:39:34.061Z,990.08
2023-04-12T10:40:33.978Z,990.07
2023-04-12T10:41:33.973Z,990.00
2023-04-12T10:42:33.949Z,989.98
2023-04-12T10:43:33.950Z,989.94
2023-04-12T10:44:33.918Z,989.87
2023-04-12T10:45:33.934Z,989.84
2023-04-12T10:46:33.945Z,989.84
2023-04-12T10:47:33.937Z,989.81
2023-04-12T10:48:33.901Z,989.78
2023-04-12T10:49:33.870Z,989.86
2023-04-12T10:50:33.861Z,989.86
2023-04-12T10:51:33.856Z,989.87
2023-04-12T10:52:33.830Z,989.89
2023-04-12T10:53:34.248Z,989.85
2023-04-12T10:54:33.877Z,989.84
2023-04-12T10:55:33.845Z,989.87
2023-04-12T10:56:33.818Z,989.84
2023-04-12T10:57:33.832Z,989.81
2023-04-12T10:58:33.817Z,989.85
2023-04-12T10:59:46.999Z,989.78
2023-04-12T11:00:34.831Z,989.80
2023-04-12T11:01:35.942Z,989.78
2023-04-12T11:02:33.859Z,989.77
2023-04-12T11:03:33.777Z,989.73
2023-04-12T11:04:33.770Z,989.66
2023-04-12T11:05:33.816Z,989.71
2023-04-12T11:06:33.677Z,989.70
2023-04-12T11:07:33.670Z,989.73
2023-04-12T11:08:33.701Z,989.75
2023-04-12T11:09:33.650Z,989.73
2023-04-12T11:10:33.608Z,989.70
2023-04-12T11:11:33.626Z,989.71
2023-04-12T11:12:33.619Z,989.67
2023-04-12T11:13:33.622Z,989.60
2023-04-12T11:14:33.602Z,989.61
2023-04-12T11:15:33.547Z,989.56
2023-04-12T11:16:33.621Z,989.58
2023-04-12T11:17:35.582Z,989.61
2023-04-12T11:18:33.590Z,989.66
2023-04-12T11:19:33.522Z,989.83
2023-04-12T11:20:33.536Z,990.07
2023-04-12T11:21:33.495Z,990.24
2023-04-12T11:22:33.505Z,990.28
2023-04-12T11:23:33.466Z,990.34
2023-04-12T11:24:33.504Z,990.43
2023-04-12T11:25:33.464Z,990.36
2023-04-12T11:26:33.436Z,990.39
2023-04-12T11:27:33.488Z,990.53
2023-04-12T11:28:35.381Z,990.53
2023-04-12T11:29:33.401Z,990.52
2023-04-12T11:30:33.398Z,990.56
2023-04-12T11:31:33.450Z,990.62
2023-04-12T11:32:33.400Z,990.51
2023-04-12T11:33:33.344Z,990.71
2023-04-12T11:34:33.344Z,990.69
2023-04-12T11:35:33.346Z,990.83
2023-04-12T11:36:33.364Z,990.76
2023-04-12T11:37:33.346Z,990.75
2023-04-12T11:38:33.295Z,990.74
2023-04-12T11:39:33.436Z,990.72
2023-04-12T11:40:33.288Z,990.73
2023-04-12T11:41:33.273Z,990.64
2023-04-12T11:42:33.270Z,990.63
2023-04-12T11:43:33.283Z,990.59
2023-04-12T11:44:40.909Z,990.58
2023-04-12T11:45:34.210Z,990.57
2023-04-12T11:46:33.215Z,990.57
2023-04-12T11:47:33.217Z,990.70
2023-04-12T11:48:33.194Z,990.65
2023-04-12T11:49:33.204Z,990.66
2023-04-12T11:50:33.170Z,990.71
2023-04-12T11:51:33.157Z,990.70
2023-04-12T11:52:33.144Z,990.69
2023-04-12T11:53:33.132Z,990.68
2023-04-12T11:54:33.118Z,990.70
2023-04-12T11:55:33.144Z,990.59
2023-04-12T11:56:33.144Z,990.57
2023-04-12T11:57:33.101Z,990.62
2023-04-12T11:58:33.080Z,990.67
2023-04-12T11:59:33.109Z,990.68
2023-04-12T12:00:33.092Z,990.71
2023-04-12T12:01:33.058Z,990.74
2023-04-12T12:02:37.375Z,990.79
2023-04-12T12:03:34.229Z,990.78
2023-04-12T12:04:33.270Z,990.71
2023-04-12T12:05:33.188Z,990.70
2023-04-12T12:06:33.532Z,990.69
2023-04-12T12:07:33.206Z,990.80
2023-04-12T12:08:32.975Z,990.75
2023-04-12T12:09:32.953Z,990.66
2023-04-12T12:11:33.937Z,990.61
2023-04-12T12:12:32.924Z,990.61
2023-04-12T12:13:32.905Z,990.60
2023-04-12T12:14:32.891Z,990.62
2023-04-12T12:15:32.975Z,990.67
2023-04-12T12:16:33.304Z,990.63
2023-04-12T12:17:32.950Z,990.64
2023-04-12T12:18:32.833Z,990.70
2023-04-12T12:19:32.863Z,990.66
2023-04-12T12:20:32.888Z,990.65
2023-04-12T12:21:32.836Z,990.70
2023-04-12T12:22:32.787Z,990.61
2023-04-12T12:23:32.783Z,990.59
2023-04-12T12:24:32.815Z,990.58
2023-04-12T12:25:32.768Z,990.60
2023-04-12T12:26:32.785Z,990.50
2023-04-12T12:27:32.770Z,990.49
2023-04-12T12:28:32.720Z,990.55